sensor_id;sensor_type;location;lat;lon;timestamp;pressure;altitude;pressure_sealevel;temperature;humidity
59588;BME280;45412;54.472;18.464;2023-05-22T00:01:09;100515.95;;;10.21;73.41
59588;BME280;45412;54.472;18.464;2023-05-22T00:04:02;100513.23;;;10.17;73.34
59588;BME280;45412;54.472;18.464;2023-05-22T00:06:51;100510.42;;;10.11;73.08
59588;BME280;45412;54.472;18.464;2023-05-22T00:09:40;100515.05;;;10.06;73.66
59588;BME280;45412;54.472;18.464;2023-05-22T00:12:28;100510.52;;;10.02;74.05
59588;BME280;45412;54.472;18.464;2023-05-22T00:15:16;100508.61;;;9.99;73.76
59588;BME280;45412;54.472;18.464;2023-05-22T00:18:04;100508.34;;;9.98;74.15
59588;BME280;45412;54.472;18.464;2023-05-22T00:20:53;100509.23;;;9.97;74.23
59588;BME280;45412;54.472;18.464;2023-05-22T00:23:42;100508.95;;;9.99;74.25
59588;BME280;45412;54.472;18.464;2023-05-22T00:26:31;100510.95;;;10.01;74.90
59588;BME280;45412;54.472;18.464;2023-05-22T00:29:19;100511.59;;;10.02;74.91
59588;BME280;45412;54.472;18.464;2023-05-22T00:32:08;100512.59;;;10.03;74.81
59588;BME280;45412;54.472;18.464;2023-05-22T00:34:56;100508.38;;;10.02;74.80
59588;BME280;45412;54.472;18.464;2023-05-22T00:37:44;100506.65;;;10.01;74.84
59588;BME280;45412;54.472;18.464;2023-05-22T00:40:33;100503.88;;;10.00;75.17
59588;BME280;45412;54.472;18.464;2023-05-22T00:43:23;100504.87;;;9.99;75.24
59588;BME280;45412;54.472;18.464;2023-05-22T00:46:12;100502.65;;;9.98;75.46
59588;BME280;45412;54.472;18.464;2023-05-22T00:49:01;100495.09;;;9.97;76.04
59588;BME280;45412;54.472;18.464;2023-05-22T00:51:50;100497.14;;;9.98;75.92
59588;BME280;45412;54.472;18.464;2023-05-22T00:54:38;100496.77;;;10.01;76.12
59588;BME280;45412;54.472;18.464;2023-05-22T00:57:26;100493.82;;;10.05;76.56
59588;BME280;45412;54.472;18.464;2023-05-22T01:00:17;100492.77;;;10.08;76.18
59588;BME280;45412;54.472;18.464;2023-05-22T01:03:05;100494.39;;;10.10;76.07
59588;BME280;45412;54.472;18.464;2023-05-22T01:05:56;100495.50;;;10.12;76.18
59588;BME280;45412;54.472;18.464;2023-05-22T01:08:45;100492.30;;;10.12;75.90
59588;BME280;45412;54.472;18.464;2023-05-22T01:14:48;100492.99;;;10.09;75.92
59588;BME280;45412;54.472;18.464;2023-05-22T01:18:06;100491.49;;;10.09;76.02
59588;BME280;45412;54.472;18.464;2023-05-22T01:21:11;100490.41;;;10.06;76.22
59588;BME280;45412;54.472;18.464;2023-05-22T01:31:16;100490.85;;;10.07;76.41
59588;BME280;45412;54.472;18.464;2023-05-22T01:34:09;100492.84;;;10.09;77.13
59588;BME280;45412;54.472;18.464;2023-05-22T01:37:00;100491.88;;;10.08;76.50
59588;BME280;45412;54.472;18.464;2023-05-22T01:39:50;100487.10;;;10.08;76.30
59588;BME280;45412;54.472;18.464;2023-05-22T01:42:39;100488.85;;;10.10;75.95
59588;BME280;45412;54.472;18.464;2023-05-22T01:45:28;100483.16;;;10.11;76.32
59588;BME280;45412;54.472;18.464;2023-05-22T01:48:18;100487.13;;;10.10;76.63
59588;BME280;45412;54.472;18.464;2023-05-22T01:51:38;100487.86;;;10.07;76.39
59588;BME280;45412;54.472;18.464;2023-05-22T01:55:14;100485.45;;;10.03;76.63
59588;BME280;45412;54.472;18.464;2023-05-22T01:58:57;100483.61;;;10.02;76.85
59588;BME280;45412;54.472;18.464;2023-05-22T02:01:51;100481.97;;;10.02;77.42
59588;BME280;45412;54.472;18.464;2023-05-22T02:04:45;100484.58;;;10.03;77.70
59588;BME280;45412;54.472;18.464;2023-05-22T02:07:41;100482.91;;;10.04;77.23
59588;BME280;45412;54.472;18.464;2023-05-22T02:10:30;100484.46;;;10.05;77.71
59588;BME280;45412;54.472;18.464;2023-05-22T02:13:21;100485.83;;;10.05;77.85
59588;BME280;45412;54.472;18.464;2023-05-22T02:16:10;100487.83;;;10.04;77.54
59588;BME280;45412;54.472;18.464;2023-05-22T02:19:00;100488.35;;;10.02;77.57
59588;BME280;45412;54.472;18.464;2023-05-22T02:21:54;100483.85;;;10.00;77.71
59588;BME280;45412;54.472;18.464;2023-05-22T02:24:46;100481.91;;;9.98;77.89
59588;BME280;45412;54.472;18.464;2023-05-22T02:27:35;100479.88;;;9.96;78.06
59588;BME280;45412;54.472;18.464;2023-05-22T02:30:24;100480.39;;;9.97;78.14
59588;BME280;45412;54.472;18.464;2023-05-22T02:33:13;100478.80;;;9.97;77.97
59588;BME280;45412;54.472;18.464;2023-05-22T02:36:05;100478.94;;;9.97;77.64
59588;BME280;45412;54.472;18.464;2023-05-22T02:38:58;100479.93;;;9.98;77.31
59588;BME280;45412;54.472;18.464;2023-05-22T02:41:46;100475.88;;;9.98;77.17
59588;BME280;45412;54.472;18.464;2023-05-22T02:44:35;100474.62;;;9.98;77.11
59588;BME280;45412;54.472;18.464;2023-05-22T02:47:24;100470.75;;;9.98;77.41
59588;BME280;45412;54.472;18.464;2023-05-22T02:50:13;100463.19;;;9.97;77.60
59588;BME280;45412;54.472;18.464;2023-05-22T02:53:01;100466.05;;;9.99;77.88
59588;BME280;45412;54.472;18.464;2023-05-22T02:55:50;100466.83;;;10.01;78.03
59588;BME280;45412;54.472;18.464;2023-05-22T02:58:41;100467.75;;;10.03;77.95
59588;BME280;45412;54.472;18.464;2023-05-22T03:01:29;100470.96;;;10.08;77.79
59588;BME280;45412;54.472;18.464;2023-05-22T03:04:17;100466.37;;;10.13;77.38
59588;BME280;45412;54.472;18.464;2023-05-22T03:07:07;100464.79;;;10.17;76.86
59588;BME280;45412;54.472;18.464;2023-05-22T03:09:55;100462.02;;;10.21;76.90
59588;BME280;45412;54.472;18.464;2023-05-22T03:12:45;100462.48;;;10.28;77.41
59588;BME280;45412;54.472;18.464;2023-05-22T03:15:36;100463.80;;;10.34;77.07
59588;BME280;45412;54.472;18.464;2023-05-22T03:18:31;100459.14;;;10.40;77.23
59588;BME280;45412;54.472;18.464;2023-05-22T03:21:19;100457.79;;;10.47;77.41
59588;BME280;45412;54.472;18.464;2023-05-22T03:24:09;100461.35;;;10.54;77.37
59588;BME280;45412;54.472;18.464;2023-05-22T03:26:59;100457.70;;;10.61;76.90
59588;BME280;45412;54.472;18.464;2023-05-22T03:29:56;100456.09;;;10.69;76.87
59588;BME280;45412;54.472;18.464;2023-05-22T03:32:45;100452.13;;;10.74;76.51
59588;BME280;45412;54.472;18.464;2023-05-22T03:35:34;100453.30;;;10.85;76.70
59588;BME280;45412;54.472;18.464;2023-05-22T03:38:23;100445.92;;;10.94;76.74
59588;BME280;45412;54.472;18.464;2023-05-22T03:41:12;100448.80;;;11.05;76.21
59588;BME280;45412;54.472;18.464;2023-05-22T03:44:02;100444.06;;;11.17;76.12
59588;BME280;45412;54.472;18.464;2023-05-22T03:46:52;100447.75;;;11.29;76.25
59588;BME280;45412;54.472;18.464;2023-05-22T03:49:40;100445.83;;;11.41;75.80
59588;BME280;45412;54.472;18.464;2023-05-22T03:52:28;100450.52;;;11.52;75.63
59588;BME280;45412;54.472;18.464;2023-05-22T03:55:17;100444.91;;;11.62;75.31
59588;BME280;45412;54.472;18.464;2023-05-22T03:58:06;100447.58;;;11.74;75.16
59588;BME280;45412;54.472;18.464;2023-05-22T04:00:56;100445.27;;;11.83;75.15
59588;BME280;45412;54.472;18.464;2023-05-22T04:03:45;100447.36;;;11.96;74.74
59588;BME280;45412;54.472;18.464;2023-05-22T04:06:34;100444.93;;;12.09;74.62
59588;BME280;45412;54.472;18.464;2023-05-22T04:09:34;100446.23;;;12.22;74.24
59588;BME280;45412;54.472;18.464;2023-05-22T04:12:28;100443.61;;;12.37;74.04
59588;BME280;45412;54.472;18.464;2023-05-22T04:15:16;100438.21;;;12.54;73.12
59588;BME280;45412;54.472;18.464;2023-05-22T04:18:04;100440.76;;;12.73;72.30
59588;BME280;45412;54.472;18.464;2023-05-22T04:20:54;100434.63;;;12.92;71.32
59588;BME280;45412;54.472;18.464;2023-05-22T04:23:42;100436.30;;;13.13;70.26
59588;BME280;45412;54.472;18.464;2023-05-22T04:26:32;100434.61;;;13.34;68.84
59588;BME280;45412;54.472;18.464;2023-05-22T04:29:24;100433.06;;;13.56;67.97
59588;BME280;45412;54.472;18.464;2023-05-22T04:32:17;100431.65;;;13.80;67.39
59588;BME280;45412;54.472;18.464;2023-05-22T04:35:09;100430.73;;;14.03;66.71
59588;BME280;45412;54.472;18.464;2023-05-22T04:37:59;100429.05;;;14.29;65.83
59588;BME280;45412;54.472;18.464;2023-05-22T04:40:49;100429.26;;;14.59;65.13
59588;BME280;45412;54.472;18.464;2023-05-22T04:43:37;100424.67;;;14.92;64.46
59588;BME280;45412;54.472;18.464;2023-05-22T04:46:27;100420.79;;;15.37;63.27
59588;BME280;45412;54.472;18.464;2023-05-22T04:49:16;100418.55;;;15.96;62.19
59588;BME280;45412;54.472;18.464;2023-05-22T04:52:06;100416.81;;;16.76;60.36
59588;BME280;45412;54.472;18.464;2023-05-22T04:54:54;100411.11;;;17.62;57.13
59588;BME280;45412;54.472;18.464;2023-05-22T04:57:44;100416.09;;;18.45;54.49
59588;BME280;45412;54.472;18.464;2023-05-22T05:00:34;100412.42;;;19.13;52.56
59588;BME280;45412;54.472;18.464;2023-05-22T05:03:25;100407.98;;;19.48;50.89
59588;BME280;45412;54.472;18.464;2023-05-22T05:06:15;100409.09;;;19.84;49.45
59588;BME280;45412;54.472;18.464;2023-05-22T05:09:04;100407.87;;;20.35;48.43
59588;BME280;45412;54.472;18.464;2023-05-22T05:11:54;100407.98;;;20.92;46.47
59588;BME280;45412;54.472;18.464;2023-05-22T05:14:42;100404.61;;;21.63;43.69
59588;BME280;45412;54.472;18.464;2023-05-22T05:17:35;100407.34;;;22.56;42.03
59588;BME280;45412;54.472;18.464;2023-05-22T05:20:24;100406.98;;;23.39;39.37
59588;BME280;45412;54.472;18.464;2023-05-22T05:23:12;100402.18;;;24.40;37.84
59588;BME280;45412;54.472;18.464;2023-05-22T05:26:00;100399.38;;;25.40;35.54
59588;BME280;45412;54.472;18.464;2023-05-22T05:28:49;100399.75;;;26.41;34.41
59588;BME280;45412;54.472;18.464;2023-05-22T05:31:39;100400.00;;;27.31;31.99
59588;BME280;45412;54.472;18.464;2023-05-22T05:34:50;100393.30;;;28.01;29.97
59588;BME280;45412;54.472;18.464;2023-05-22T05:38:00;100389.81;;;28.38;29.28
59588;BME280;45412;54.472;18.464;2023-05-22T05:40:50;100395.78;;;28.87;28.54
59588;BME280;45412;54.472;18.464;2023-05-22T05:43:40;100393.90;;;29.34;28.47
59588;BME280;45412;54.472;18.464;2023-05-22T05:46:29;100394.80;;;29.88;27.86
59588;BME280;45412;54.472;18.464;2023-05-22T05:49:19;100391.34;;;30.32;26.15
59588;BME280;45412;54.472;18.464;2023-05-22T05:52:08;100394.46;;;30.64;25.58
59588;BME280;45412;54.472;18.464;2023-05-22T05:54:59;100395.58;;;30.85;24.64
59588;BME280;45412;54.472;18.464;2023-05-22T05:57:48;100397.50;;;30.91;24.77
59588;BME280;45412;54.472;18.464;2023-05-22T06:00:48;100396.06;;;31.16;24.42
59588;BME280;45412;54.472;18.464;2023-05-22T06:03:40;100394.33;;;31.48;23.87
59588;BME280;45412;54.472;18.464;2023-05-22T06:06:42;100384.75;;;31.94;24.08
59588;BME280;45412;54.472;18.464;2023-05-22T06:09:34;100378.92;;;32.35;23.18
59588;BME280;45412;54.472;18.464;2023-05-22T06:12:29;100377.80;;;32.81;22.71
59588;BME280;45412;54.472;18.464;2023-05-22T06:20:10;100359.45;;;33.91;21.38
59588;BME280;45412;54.472;18.464;2023-05-22T06:23:00;100367.19;;;34.27;20.97
59588;BME280;45412;54.472;18.464;2023-05-22T06:25:48;100366.45;;;34.46;20.42
59588;BME280;45412;54.472;18.464;2023-05-22T06:28:37;100364.45;;;34.68;20.24
59588;BME280;45412;54.472;18.464;2023-05-22T06:31:26;100364.58;;;34.96;20.00
59588;BME280;45412;54.472;18.464;2023-05-22T06:34:18;100365.21;;;35.24;19.32
59588;BME280;45412;54.472;18.464;2023-05-22T06:37:10;100363.81;;;35.46;19.57
59588;BME280;45412;54.472;18.464;2023-05-22T06:40:02;100360.57;;;35.64;19.23
59588;BME280;45412;54.472;18.464;2023-05-22T06:42:57;100362.27;;;35.88;19.22
59588;BME280;45412;54.472;18.464;2023-05-22T06:45:58;100354.27;;;36.08;18.82
59588;BME280;45412;54.472;18.464;2023-05-22T06:49:01;100344.57;;;36.36;18.50
59588;BME280;45412;54.472;18.464;2023-05-22T06:52:02;100348.80;;;36.63;17.94
59588;BME280;45412;54.472;18.464;2023-05-22T06:54:52;100348.29;;;36.85;17.54
59588;BME280;45412;54.472;18.464;2023-05-22T06:57:41;100351.77;;;36.95;17.24
59588;BME280;45412;54.472;18.464;2023-05-22T07:00:29;100346.77;;;37.03;17.32
59588;BME280;45412;54.472;18.464;2023-05-22T07:03:23;100345.52;;;37.11;16.80
59588;BME280;45412;54.472;18.464;2023-05-22T07:06:33;100342.09;;;37.25;17.06
59588;BME280;45412;54.472;18.464;2023-05-22T07:09:26;100339.07;;;37.47;17.03
59588;BME280;45412;54.472;18.464;2023-05-22T07:12:15;100338.95;;;37.58;16.07
59588;BME280;45412;54.472;18.464;2023-05-22T07:15:05;100336.11;;;37.69;15.80
59588;BME280;45412;54.472;18.464;2023-05-22T07:17:57;100340.58;;;37.92;15.37
59588;BME280;45412;54.472;18.464;2023-05-22T07:20:46;100330.91;;;38.19;14.82
59588;BME280;45412;54.472;18.464;2023-05-22T07:23:39;100339.21;;;38.40;14.28
59588;BME280;45412;54.472;18.464;2023-05-22T07:26:28;100334.73;;;38.07;14.27
59588;BME280;45412;54.472;18.464;2023-05-22T07:29:22;100334.37;;;38.04;15.25
59588;BME280;45412;54.472;18.464;2023-05-22T07:32:12;100332.73;;;38.03;14.91
59588;BME280;45412;54.472;18.464;2023-05-22T07:35:00;100332.66;;;37.82;13.77
59588;BME280;45412;54.472;18.464;2023-05-22T07:37:49;100330.02;;;37.88;14.07
59588;BME280;45412;54.472;18.464;2023-05-22T07:40:37;100330.23;;;38.07;14.32
59588;BME280;45412;54.472;18.464;2023-05-22T07:43:26;100327.35;;;38.07;13.69
59588;BME280;45412;54.472;18.464;2023-05-22T07:46:15;100325.14;;;38.10;14.01
59588;BME280;45412;54.472;18.464;2023-05-22T07:49:11;100327.34;;;38.17;13.93
59588;BME280;45412;54.472;18.464;2023-05-22T07:52:04;100327.86;;;38.10;13.48
59588;BME280;45412;54.472;18.464;2023-05-22T07:54:52;100325.20;;;38.18;13.21
59588;BME280;45412;54.472;18.464;2023-05-22T07:57:42;100322.83;;;38.30;12.92
59588;BME280;45412;54.472;18.464;2023-05-22T08:00:37;100321.06;;;38.46;12.63
59588;BME280;45412;54.472;18.464;2023-05-22T08:03:26;100319.31;;;38.36;12.47
59588;BME280;45412;54.472;18.464;2023-05-22T08:06:14;100320.07;;;38.29;12.73
59588;BME280;45412;54.472;18.464;2023-05-22T08:09:05;100319.98;;;38.23;12.03
59588;BME280;45412;54.472;18.464;2023-05-22T08:11:54;100320.84;;;38.26;11.98
59588;BME280;45412;54.472;18.464;2023-05-22T08:14:42;100319.68;;;38.21;12.09
59588;BME280;45412;54.472;18.464;2023-05-22T08:17:30;100317.36;;;37.89;11.82
59588;BME280;45412;54.472;18.464;2023-05-22T08:20:19;100315.67;;;37.38;11.95
59588;BME280;45412;54.472;18.464;2023-05-22T08:23:07;100314.14;;;37.23;12.06
59588;BME280;45412;54.472;18.464;2023-05-22T08:25:56;100320.59;;;37.21;11.79
59588;BME280;45412;54.472;18.464;2023-05-22T08:28:44;100323.00;;;37.18;11.61
59588;BME280;45412;54.472;18.464;2023-05-22T08:31:35;100317.45;;;36.99;11.25
59588;BME280;45412;54.472;18.464;2023-05-22T08:34:24;100316.97;;;36.91;11.60
59588;BME280;45412;54.472;18.464;2023-05-22T08:37:14;100312.45;;;36.95;12.04
59588;BME280;45412;54.472;18.464;2023-05-22T08:40:03;100315.16;;;36.64;11.74
59588;BME280;45412;54.472;18.464;2023-05-22T08:42:51;100312.65;;;36.66;12.17
59588;BME280;45412;54.472;18.464;2023-05-22T08:45:41;100315.27;;;36.78;11.99
59588;BME280;45412;54.472;18.464;2023-05-22T08:48:32;100314.00;;;36.70;11.56
59588;BME280;45412;54.472;18.464;2023-05-22T08:51:21;100308.45;;;36.46;12.18
59588;BME280;45412;54.472;18.464;2023-05-22T08:54:10;100309.20;;;36.51;13.23
59588;BME280;45412;54.472;18.464;2023-05-22T08:56:58;100307.14;;;36.84;13.85
59588;BME280;45412;54.472;18.464;2023-05-22T08:59:47;100304.96;;;37.07;13.75
59588;BME280;45412;54.472;18.464;2023-05-22T09:02:39;100300.84;;;37.35;13.27
59588;BME280;45412;54.472;18.464;2023-05-22T09:05:29;100303.60;;;37.67;13.24
59588;BME280;45412;54.472;18.464;2023-05-22T09:08:18;100299.53;;;37.93;13.31
59588;BME280;45412;54.472;18.464;2023-05-22T09:11:08;100299.40;;;37.95;13.11
59588;BME280;45412;54.472;18.464;2023-05-22T09:14:11;100299.73;;;37.90;13.16
59588;BME280;45412;54.472;18.464;2023-05-22T09:16:59;100293.07;;;38.08;12.88
59588;BME280;45412;54.472;18.464;2023-05-22T09:19:48;100294.65;;;37.96;12.15
59588;BME280;45412;54.472;18.464;2023-05-22T09:22:36;100293.36;;;37.79;11.70
59588;BME280;45412;54.472;18.464;2023-05-22T09:25:26;100288.23;;;37.81;12.67
59588;BME280;45412;54.472;18.464;2023-05-22T09:28:14;100286.08;;;38.02;11.95
59588;BME280;45412;54.472;18.464;2023-05-22T09:31:03;100282.31;;;38.10;11.89
59588;BME280;45412;54.472;18.464;2023-05-22T09:33:54;100278.58;;;37.98;11.99
59588;BME280;45412;54.472;18.464;2023-05-22T09:36:43;100284.69;;;37.94;12.42
59588;BME280;45412;54.472;18.464;2023-05-22T09:39:46;100280.33;;;37.78;12.05
59588;BME280;45412;54.472;18.464;2023-05-22T09:42:42;100277.84;;;37.79;12.51
59588;BME280;45412;54.472;18.464;2023-05-22T09:45:34;100278.44;;;37.92;12.52
59588;BME280;45412;54.472;18.464;2023-05-22T09:48:23;100275.98;;;37.94;13.15
59588;BME280;45412;54.472;18.464;2023-05-22T09:51:12;100273.24;;;37.72;12.77
59588;BME280;45412;54.472;18.464;2023-05-22T09:54:02;100271.50;;;37.54;12.83
59588;BME280;45412;54.472;18.464;2023-05-22T09:56:55;100263.94;;;37.54;13.35
59588;BME280;45412;54.472;18.464;2023-05-22T09:59:52;100263.67;;;37.58;13.45
59588;BME280;45412;54.472;18.464;2023-05-22T10:02:57;100261.56;;;37.50;13.42
59588;BME280;45412;54.472;18.464;2023-05-22T10:05:53;100263.63;;;37.47;12.88
59588;BME280;45412;54.472;18.464;2023-05-22T10:08:49;100259.80;;;37.66;12.92
59588;BME280;45412;54.472;18.464;2023-05-22T10:11:43;100260.18;;;37.73;12.89
59588;BME280;45412;54.472;18.464;2023-05-22T10:14:33;100260.95;;;37.80;12.78
59588;BME280;45412;54.472;18.464;2023-05-22T10:17:24;100259.26;;;37.93;13.18
59588;BME280;45412;54.472;18.464;2023-05-22T10:20:14;100259.89;;;37.68;12.92
59588;BME280;45412;54.472;18.464;2023-05-22T10:23:03;100253.16;;;37.56;13.19
59588;BME280;45412;54.472;18.464;2023-05-22T10:25:52;100253.14;;;37.48;13.05
59588;BME280;45412;54.472;18.464;2023-05-22T10:28:51;100252.87;;;37.26;13.60
59588;BME280;45412;54.472;18.464;2023-05-22T10:35:24;100245.26;;;36.78;12.70
59588;BME280;45412;54.472;18.464;2023-05-22T10:41:48;100239.23;;;37.08;13.92
59588;BME280;45412;54.472;18.464;2023-05-22T10:44:37;100236.59;;;37.34;13.49
59588;BME280;45412;54.472;18.464;2023-05-22T10:47:25;100230.73;;;37.60;13.64
59588;BME280;45412;54.472;18.464;2023-05-22T10:50:16;100225.64;;;37.63;13.81
59588;BME280;45412;54.472;18.464;2023-05-22T10:53:26;100227.13;;;37.64;14.26
59588;BME280;45412;54.472;18.464;2023-05-22T10:56:18;100227.06;;;37.75;15.17
59588;BME280;45412;54.472;18.464;2023-05-22T10:59:12;100226.25;;;37.91;15.39
59588;BME280;45412;54.472;18.464;2023-05-22T11:02:00;100220.53;;;37.94;14.65
59588;BME280;45412;54.472;18.464;2023-05-22T11:04:50;100224.88;;;37.89;14.55
59588;BME280;45412;54.472;18.464;2023-05-22T11:07:41;100221.39;;;37.71;13.97
59588;BME280;45412;54.472;18.464;2023-05-22T11:10:56;100221.75;;;37.24;14.66
59588;BME280;45412;54.472;18.464;2023-05-22T11:13:51;100218.71;;;36.46;15.39
59588;BME280;45412;54.472;18.464;2023-05-22T11:16:40;100215.51;;;35.53;16.36
59588;BME280;45412;54.472;18.464;2023-05-22T11:19:28;100217.46;;;34.85;16.67
59588;BME280;45412;54.472;18.464;2023-05-22T11:22:16;100215.48;;;34.51;16.87
59588;BME280;45412;54.472;18.464;2023-05-22T11:25:19;100211.89;;;34.06;16.69
59588;BME280;45412;54.472;18.464;2023-05-22T11:28:10;100205.39;;;33.40;17.23
59588;BME280;45412;54.472;18.464;2023-05-22T11:31:03;100209.70;;;32.91;18.54
59588;BME280;45412;54.472;18.464;2023-05-22T11:33:52;100202.25;;;32.39;18.57
59588;BME280;45412;54.472;18.464;2023-05-22T11:36:41;100202.14;;;31.88;19.37
59588;BME280;45412;54.472;18.464;2023-05-22T11:39:31;100199.32;;;31.27;19.73
59588;BME280;45412;54.472;18.464;2023-05-22T11:42:19;100204.48;;;30.60;19.77
59588;BME280;45412;54.472;18.464;2023-05-22T11:45:09;100199.64;;;29.88;20.64
59588;BME280;45412;54.472;18.464;2023-05-22T11:47:58;100199.77;;;29.19;21.88
59588;BME280;45412;54.472;18.464;2023-05-22T11:50:47;100201.48;;;28.70;21.73
59588;BME280;45412;54.472;18.464;2023-05-22T11:53:35;100202.75;;;28.28;22.03
59588;BME280;45412;54.472;18.464;2023-05-22T11:56:24;100197.19;;;27.89;22.06
59588;BME280;45412;54.472;18.464;2023-05-22T11:59:13;100200.05;;;27.49;22.59
59588;BME280;45412;54.472;18.464;2023-05-22T12:02:02;100193.98;;;27.10;23.83
59588;BME280;45412;54.472;18.464;2023-05-22T12:04:53;100195.44;;;26.77;24.46
59588;BME280;45412;54.472;18.464;2023-05-22T12:07:43;100195.75;;;26.51;24.00
59588;BME280;45412;54.472;18.464;2023-05-22T12:10:32;100197.30;;;26.32;25.05
59588;BME280;45412;54.472;18.464;2023-05-22T12:13:25;100195.73;;;26.10;25.33
59588;BME280;45412;54.472;18.464;2023-05-22T12:16:19;100201.01;;;25.97;25.95
59588;BME280;45412;54.472;18.464;2023-05-22T12:19:12;100194.45;;;25.86;26.24
59588;BME280;45412;54.472;18.464;2023-05-22T12:22:03;100193.42;;;25.77;26.08
59588;BME280;45412;54.472;18.464;2023-05-22T12:24:53;100190.04;;;25.65;25.95
59588;BME280;45412;54.472;18.464;2023-05-22T12:27:43;100189.00;;;25.49;26.06
59588;BME280;45412;54.472;18.464;2023-05-22T12:30:41;100184.80;;;25.32;26.36
59588;BME280;45412;54.472;18.464;2023-05-22T12:33:30;100188.70;;;25.26;26.52
59588;BME280;45412;54.472;18.464;2023-05-22T12:36:19;100183.27;;;25.23;26.84
59588;BME280;45412;54.472;18.464;2023-05-22T12:39:10;100180.22;;;25.18;26.10
59588;BME280;45412;54.472;18.464;2023-05-22T12:41:59;100176.68;;;25.09;26.53
59588;BME280;45412;54.472;18.464;2023-05-22T12:44:49;100179.46;;;25.04;26.83
59588;BME280;45412;54.472;18.464;2023-05-22T12:47:39;100179.38;;;24.99;27.06
59588;BME280;45412;54.472;18.464;2023-05-22T12:50:30;100175.23;;;24.88;27.17
59588;BME280;45412;54.472;18.464;2023-05-22T12:53:18;100176.51;;;24.73;27.19
59588;BME280;45412;54.472;18.464;2023-05-22T12:56:06;100175.01;;;24.63;27.41
59588;BME280;45412;54.472;18.464;2023-05-22T12:58:58;100170.88;;;24.58;27.44
59588;BME280;45412;54.472;18.464;2023-05-22T13:01:51;100171.16;;;24.52;27.72
59588;BME280;45412;54.472;18.464;2023-05-22T13:04:42;100164.46;;;24.47;27.62
59588;BME280;45412;54.472;18.464;2023-05-22T13:07:31;100165.63;;;24.43;27.74
59588;BME280;45412;54.472;18.464;2023-05-22T13:10:20;100159.63;;;24.38;28.05
59588;BME280;45412;54.472;18.464;2023-05-22T13:13:08;100163.91;;;24.39;27.86
59588;BME280;45412;54.472;18.464;2023-05-22T13:15:57;100161.39;;;24.30;27.59
59588;BME280;45412;54.472;18.464;2023-05-22T13:18:45;100157.30;;;24.25;27.28
59588;BME280;45412;54.472;18.464;2023-05-22T13:21:35;100154.55;;;24.17;27.30
59588;BME280;45412;54.472;18.464;2023-05-22T13:24:24;100152.45;;;24.10;26.92
59588;BME280;45412;54.472;18.464;2023-05-22T13:27:17;100151.48;;;24.03;26.78
59588;BME280;45412;54.472;18.464;2023-05-22T13:30:06;100154.52;;;23.96;26.77
59588;BME280;45412;54.472;18.464;2023-05-22T13:32:57;100148.91;;;23.94;26.88
59588;BME280;45412;54.472;18.464;2023-05-22T13:35:45;100149.27;;;23.90;27.28
59588;BME280;45412;54.472;18.464;2023-05-22T13:38:34;100145.41;;;23.95;27.21
59588;BME280;45412;54.472;18.464;2023-05-22T13:41:22;100142.77;;;24.00;26.94
59588;BME280;45412;54.472;18.464;2023-05-22T13:44:11;100138.55;;;24.06;26.95
59588;BME280;45412;54.472;18.464;2023-05-22T13:47:02;100137.73;;;24.12;26.86
59588;BME280;45412;54.472;18.464;2023-05-22T13:49:54;100130.13;;;24.13;26.54
59588;BME280;45412;54.472;18.464;2023-05-22T13:52:44;100125.92;;;24.25;26.54
59588;BME280;45412;54.472;18.464;2023-05-22T13:55:33;100121.13;;;24.35;26.41
59588;BME280;45412;54.472;18.464;2023-05-22T13:58:21;100120.65;;;24.39;26.04
59588;BME280;45412;54.472;18.464;2023-05-22T14:01:10;100117.22;;;24.47;26.42
59588;BME280;45412;54.472;18.464;2023-05-22T14:03:58;100115.88;;;24.48;26.21
59588;BME280;45412;54.472;18.464;2023-05-22T14:06:47;100112.44;;;24.49;25.90
59588;BME280;45412;54.472;18.464;2023-05-22T14:09:36;100108.27;;;24.48;26.12
59588;BME280;45412;54.472;18.464;2023-05-22T14:12:28;100110.91;;;24.54;26.59
59588;BME280;45412;54.472;18.464;2023-05-22T14:15:19;100110.73;;;24.55;26.04
59588;BME280;45412;54.472;18.464;2023-05-22T14:18:08;100101.74;;;24.45;26.69
59588;BME280;45412;54.472;18.464;2023-05-22T14:20:59;100106.05;;;24.40;27.05
59588;BME280;45412;54.472;18.464;2023-05-22T14:23:51;100102.75;;;24.35;27.09
59588;BME280;45412;54.472;18.464;2023-05-22T14:26:40;100103.37;;;24.29;27.08
59588;BME280;45412;54.472;18.464;2023-05-22T14:29:30;100102.78;;;24.24;27.21
59588;BME280;45412;54.472;18.464;2023-05-22T14:32:18;100104.63;;;24.21;26.95
59588;BME280;45412;54.472;18.464;2023-05-22T14:35:07;100102.61;;;24.15;26.89
59588;BME280;45412;54.472;18.464;2023-05-22T14:37:57;100103.39;;;24.07;27.18
59588;BME280;45412;54.472;18.464;2023-05-22T14:40:46;100101.13;;;24.06;27.73
59588;BME280;45412;54.472;18.464;2023-05-22T14:43:34;100099.79;;;23.98;27.89
59588;BME280;45412;54.472;18.464;2023-05-22T14:46:24;100099.98;;;23.92;28.02
59588;BME280;45412;54.472;18.464;2023-05-22T14:49:13;100101.67;;;23.79;27.89
59588;BME280;45412;54.472;18.464;2023-05-22T14:52:02;100099.33;;;23.72;28.20
59588;BME280;45412;54.472;18.464;2023-05-22T14:54:52;100092.56;;;23.72;28.59
59588;BME280;45412;54.472;18.464;2023-05-22T14:57:41;100095.02;;;23.71;28.38
59588;BME280;45412;54.472;18.464;2023-05-22T15:00:29;100089.62;;;23.70;28.67
59588;BME280;45412;54.472;18.464;2023-05-22T15:03:18;100085.48;;;23.65;28.77
59588;BME280;45412;54.472;18.464;2023-05-22T15:06:08;100083.66;;;23.57;28.87